sensor_id;sensor_type;location;lat;lon;timestamp;temperature;humidity
33095;DHT22;19459;53.044;8.910;2022-10-10T00:00:31;8.40;99.90
33095;DHT22;19459;53.044;8.910;2022-10-10T00:02:57;8.40;99.90
33095;DHT22;19459;53.044;8.910;2022-10-10T00:05:23;8.30;99.90
33095;DHT22;19459;53.044;8.910;2022-10-10T00:07:49;8.30;99.90
33095;DHT22;19459;53.044;8.910;2022-10-10T00:10:14;8.30;99.90
33095;DHT22;19459;53.044;8.910;2022-10-10T00:12:40;8.30;99.90
33095;DHT22;19459;53.044;8.910;2022-10-10T00:15:07;8.30;99.90
33095;DHT22;19459;53.044;8.910;2022-10-10T00:17:34;8.30;99.90
33095;DHT22;19459;53.044;8.910;2022-10-10T00:20:00;8.30;99.90
33095;DHT22;19459;53.044;8.910;2022-10-10T00:22:26;8.30;99.90
33095;DHT22;19459;53.044;8.910;2022-10-10T00:24:51;8.30;99.90
33095;DHT22;19459;53.044;8.910;2022-10-10T00:27:17;8.30;99.90
33095;DHT22;19459;53.044;8.910;2022-10-10T00:29:43;8.20;99.90
33095;DHT22;19459;53.044;8.910;2022-10-10T00:32:09;8.20;99.90
33095;DHT22;19459;53.044;8.910;2022-10-10T00:34:34;8.20;99.90
33095;DHT22;19459;53.044;8.910;2022-10-10T00:37:00;8.20;99.90
33095;DHT22;19459;53.044;8.910;2022-10-10T00:39:26;8.20;99.90
33095;DHT22;19459;53.044;8.910;2022-10-10T00:41:51;8.10;99.90
33095;DHT22;19459;53.044;8.910;2022-10-10T00:44:17;8.10;99.90
33095;DHT22;19459;53.044;8.910;2022-10-10T00:46:43;8.10;99.90
33095;DHT22;19459;53.044;8.910;2022-10-10T00:49:13;8.10;99.90
33095;DHT22;19459;53.044;8.910;2022-10-10T00:51:43;8.00;99.90
33095;DHT22;19459;53.044;8.910;2022-10-10T00:54:12;8.10;99.90
33095;DHT22;19459;53.044;8.910;2022-10-10T00:56:44;8.00;99.90
33095;DHT22;19459;53.044;8.910;2022-10-10T00:59:14;8.00;99.90
33095;DHT22;19459;53.044;8.910;2022-10-10T01:01:41;7.90;99.90
33095;DHT22;19459;53.044;8.910;2022-10-10T01:04:28;7.90;99.90
33095;DHT22;19459;53.044;8.910;2022-10-10T01:06:53;7.80;99.90
33095;DHT22;19459;53.044;8.910;2022-10-10T01:09:19;7.70;99.90
33095;DHT22;19459;53.044;8.910;2022-10-10T01:11:56;7.70;99.90
33095;DHT22;19459;53.044;8.910;2022-10-10T01:14:51;7.70;99.90
33095;DHT22;19459;53.044;8.910;2022-10-10T01:17:32;7.60;99.90
33095;DHT22;19459;53.044;8.910;2022-10-10T01:26:08;7.50;99.90
33095;DHT22;19459;53.044;8.910;2022-10-10T01:29:03;7.50;99.90
33095;DHT22;19459;53.044;8.910;2022-10-10T01:31:38;7.50;99.90
33095;DHT22;19459;53.044;8.910;2022-10-10T01:39:58;7.50;99.90
33095;DHT22;19459;53.044;8.910;2022-10-10T01:42:41;7.50;99.90
33095;DHT22;19459;53.044;8.910;2022-10-10T01:45:11;7.40;99.90
33095;DHT22;19459;53.044;8.910;2022-10-10T01:47:37;7.40;99.90
33095;DHT22;19459;53.044;8.910;2022-10-10T01:50:08;7.40;99.90
33095;DHT22;19459;53.044;8.910;2022-10-10T01:56:05;7.40;99.90
33095;DHT22;19459;53.044;8.910;2022-10-10T02:01:54;7.30;99.90
33095;DHT22;19459;53.044;8.910;2022-10-10T02:05:14;7.30;99.90
33095;DHT22;19459;53.044;8.910;2022-10-10T02:07:31;7.30;99.90
33095;DHT22;19459;53.044;8.910;2022-10-10T02:10:02;7.30;99.90
33095;DHT22;19459;53.044;8.910;2022-10-10T02:12:31;7.30;99.90
33095;DHT22;19459;53.044;8.910;2022-10-10T02:15:03;7.20;99.90
33095;DHT22;19459;53.044;8.910;2022-10-10T02:17:35;7.30;99.90
33095;DHT22;19459;53.044;8.910;2022-10-10T02:20:05;7.30;99.90
33095;DHT22;19459;53.044;8.910;2022-10-10T02:22:33;7.20;99.90
33095;DHT22;19459;53.044;8.910;2022-10-10T02:24:59;7.20;99.90
33095;DHT22;19459;53.044;8.910;2022-10-10T02:27:52;7.20;99.90
33095;DHT22;19459;53.044;8.910;2022-10-10T02:30:23;7.20;99.90
33095;DHT22;19459;53.044;8.910;2022-10-10T02:32:53;7.20;99.90
33095;DHT22;19459;53.044;8.910;2022-10-10T02:35:29;7.20;99.90
33095;DHT22;19459;53.044;8.910;2022-10-10T02:37:57;7.20;99.90
33095;DHT22;19459;53.044;8.910;2022-10-10T02:40:27;7.20;99.90
33095;DHT22;19459;53.044;8.910;2022-10-10T02:42:56;7.20;99.90
33095;DHT22;19459;53.044;8.910;2022-10-10T02:45:24;7.20;99.90
33095;DHT22;19459;53.044;8.910;2022-10-10T02:47:53;7.20;99.90
33095;DHT22;19459;53.044;8.910;2022-10-10T02:50:20;7.10;99.90
33095;DHT22;19459;53.044;8.910;2022-10-10T02:52:46;7.10;99.90
33095;DHT22;19459;53.044;8.910;2022-10-10T02:55:12;7.10;99.90
33095;DHT22;19459;53.044;8.910;2022-10-10T02:57:38;7.20;99.90
33095;DHT22;19459;53.044;8.910;2022-10-10T03:00:05;7.10;99.90
33095;DHT22;19459;53.044;8.910;2022-10-10T03:02:31;7.10;99.90
33095;DHT22;19459;53.044;8.910;2022-10-10T03:04:57;7.10;99.90
33095;DHT22;19459;53.044;8.910;2022-10-10T03:07:24;7.10;99.90
33095;DHT22;19459;53.044;8.910;2022-10-10T03:09:50;7.10;99.90
33095;DHT22;19459;53.044;8.910;2022-10-10T03:12:19;7.10;99.90
33095;DHT22;19459;53.044;8.910;2022-10-10T03:14:45;7.10;99.90
33095;DHT22;19459;53.044;8.910;2022-10-10T03:17:11;7.00;99.90
33095;DHT22;19459;53.044;8.910;2022-10-10T03:19:38;7.00;99.90
33095;DHT22;19459;53.044;8.910;2022-10-10T03:22:03;7.00;99.90
33095;DHT22;19459;53.044;8.910;2022-10-10T03:24:29;6.90;99.90
33095;DHT22;19459;53.044;8.910;2022-10-10T03:26:55;7.00;99.90
33095;DHT22;19459;53.044;8.910;2022-10-10T03:29:20;7.00;99.90
33095;DHT22;19459;53.044;8.910;2022-10-10T03:31:46;7.00;99.90
33095;DHT22;19459;53.044;8.910;2022-10-10T03:34:12;6.90;99.90
33095;DHT22;19459;53.044;8.910;2022-10-10T03:36:38;6.90;99.90
33095;DHT22;19459;53.044;8.910;2022-10-10T03:39:04;6.90;99.90
33095;DHT22;19459;53.044;8.910;2022-10-10T03:41:30;6.90;99.90
33095;DHT22;19459;53.044;8.910;2022-10-10T03:43:55;6.90;99.90
33095;DHT22;19459;53.044;8.910;2022-10-10T03:46:21;6.90;99.90
33095;DHT22;19459;53.044;8.910;2022-10-10T03:48:47;6.80;99.90
33095;DHT22;19459;53.044;8.910;2022-10-10T03:51:13;6.80;99.90
33095;DHT22;19459;53.044;8.910;2022-10-10T03:53:39;6.80;99.90
33095;DHT22;19459;53.044;8.910;2022-10-10T03:56:05;6.80;99.90
33095;DHT22;19459;53.044;8.910;2022-10-10T03:58:31;6.70;99.90
33095;DHT22;19459;53.044;8.910;2022-10-10T04:01:01;6.70;99.90
33095;DHT22;19459;53.044;8.910;2022-10-10T04:03:28;6.70;99.90
33095;DHT22;19459;53.044;8.910;2022-10-10T04:05:54;6.70;99.90
33095;DHT22;19459;53.044;8.910;2022-10-10T04:08:20;6.70;99.90
33095;DHT22;19459;53.044;8.910;2022-10-10T04:10:48;6.60;99.90
33095;DHT22;19459;53.044;8.910;2022-10-10T04:13:14;6.60;99.90
33095;DHT22;19459;53.044;8.910;2022-10-10T04:15:39;6.60;99.90
33095;DHT22;19459;53.044;8.910;2022-10-10T04:18:05;6.60;99.90
33095;DHT22;19459;53.044;8.910;2022-10-10T04:20:31;6.60;99.90
33095;DHT22;19459;53.044;8.910;2022-10-10T04:22:57;6.50;99.90
33095;DHT22;19459;53.044;8.910;2022-10-10T04:25:22;6.50;99.90
33095;DHT22;19459;53.044;8.910;2022-10-10T04:27:49;6.50;99.90
33095;DHT22;19459;53.044;8.910;2022-10-10T04:30:15;6.50;99.90
33095;DHT22;19459;53.044;8.910;2022-10-10T04:32:40;6.50;99.90
33095;DHT22;19459;53.044;8.910;2022-10-10T04:35:06;6.50;99.90
33095;DHT22;19459;53.044;8.910;2022-10-10T04:37:33;6.60;99.90
33095;DHT22;19459;53.044;8.910;2022-10-10T04:39:59;6.60;99.90
33095;DHT22;19459;53.044;8.910;2022-10-10T04:42:24;6.60;99.90
33095;DHT22;19459;53.044;8.910;2022-10-10T04:44:50;6.60;99.90
33095;DHT22;19459;53.044;8.910;2022-10-10T04:47:16;6.60;99.90
33095;DHT22;19459;53.044;8.910;2022-10-10T04:49:42;6.50;99.90
33095;DHT22;19459;53.044;8.910;2022-10-10T04:52:09;6.50;99.90
33095;DHT22;19459;53.044;8.910;2022-10-10T04:54:35;6.50;99.90
33095;DHT22;19459;53.044;8.910;2022-10-10T04:57:01;6.50;99.90
33095;DHT22;19459;53.044;8.910;2022-10-10T04:59:27;6.50;99.90
33095;DHT22;19459;53.044;8.910;2022-10-10T05:01:53;6.50;99.90
33095;DHT22;19459;53.044;8.910;2022-10-10T05:04:19;6.40;99.90
33095;DHT22;19459;53.044;8.910;2022-10-10T05:06:44;6.40;99.90
33095;DHT22;19459;53.044;8.910;2022-10-10T05:09:10;6.50;99.90
33095;DHT22;19459;53.044;8.910;2022-10-10T05:11:36;6.50;99.90
33095;DHT22;19459;53.044;8.910;2022-10-10T05:14:02;6.50;99.90
33095;DHT22;19459;53.044;8.910;2022-10-10T05:16:28;6.50;99.90
33095;DHT22;19459;53.044;8.910;2022-10-10T05:18:54;6.50;99.90
33095;DHT22;19459;53.044;8.910;2022-10-10T05:21:21;6.40;99.90
33095;DHT22;19459;53.044;8.910;2022-10-10T05:23:47;6.40;99.90
33095;DHT22;19459;53.044;8.910;2022-10-10T05:26:13;6.40;99.90
33095;DHT22;19459;53.044;8.910;2022-10-10T05:28:39;6.40;99.90
33095;DHT22;19459;53.044;8.910;2022-10-10T05:31:05;6.40;99.90
33095;DHT22;19459;53.044;8.910;2022-10-10T05:33:33;6.40;99.90
33095;DHT22;19459;53.044;8.910;2022-10-10T05:36:07;6.40;99.90
33095;DHT22;19459;53.044;8.910;2022-10-10T05:38:35;6.40;99.90
33095;DHT22;19459;53.044;8.910;2022-10-10T05:41:02;6.40;99.90
33095;DHT22;19459;53.044;8.910;2022-10-10T05:43:28;6.40;99.90
33095;DHT22;19459;53.044;8.910;2022-10-10T05:45:54;6.40;99.90
33095;DHT22;19459;53.044;8.910;2022-10-10T05:48:20;6.40;99.90
33095;DHT22;19459;53.044;8.910;2022-10-10T05:50:51;6.40;99.90
33095;DHT22;19459;53.044;8.910;2022-10-10T05:53:21;6.40;99.90
33095;DHT22;19459;53.044;8.910;2022-10-10T05:55:48;6.40;99.90
33095;DHT22;19459;53.044;8.910;2022-10-10T05:58:14;6.40;99.90
33095;DHT22;19459;53.044;8.910;2022-10-10T06:00:41;6.30;99.90
33095;DHT22;19459;53.044;8.910;2022-10-10T06:03:09;6.30;99.90
33095;DHT22;19459;53.044;8.910;2022-10-10T06:05:39;6.30;99.90
33095;DHT22;19459;53.044;8.910;2022-10-10T06:08:06;6.30;99.90
33095;DHT22;19459;53.044;8.910;2022-10-10T06:10:50;6.30;99.90
33095;DHT22;19459;53.044;8.910;2022-10-10T06:13:17;6.30;99.90
33095;DHT22;19459;53.044;8.910;2022-10-10T06:15:43;6.30;99.90
33095;DHT22;19459;53.044;8.910;2022-10-10T06:18:10;6.30;99.90
33095;DHT22;19459;53.044;8.910;2022-10-10T06:20:37;6.30;99.90
33095;DHT22;19459;53.044;8.910;2022-10-10T06:23:04;6.40;99.90
33095;DHT22;19459;53.044;8.910;2022-10-10T06:25:32;6.40;99.90
33095;DHT22;19459;53.044;8.910;2022-10-10T06:27:58;6.40;99.90
33095;DHT22;19459;53.044;8.910;2022-10-10T06:30:24;6.40;99.90
33095;DHT22;19459;53.044;8.910;2022-10-10T06:32:50;6.40;99.90
33095;DHT22;19459;53.044;8.910;2022-10-10T06:35:16;6.50;99.90
33095;DHT22;19459;53.044;8.910;2022-10-10T06:37:42;6.50;99.90
33095;DHT22;19459;53.044;8.910;2022-10-10T06:40:07;6.50;99.90
33095;DHT22;19459;53.044;8.910;2022-10-10T06:42:33;6.60;99.90
33095;DHT22;19459;53.044;8.910;2022-10-10T06:44:59;6.60;99.90
33095;DHT22;19459;53.044;8.910;2022-10-10T06:47:25;6.60;99.90
33095;DHT22;19459;53.044;8.910;2022-10-10T06:49:51;6.70;99.90
33095;DHT22;19459;53.044;8.910;2022-10-10T06:52:16;6.70;99.90
33095;DHT22;19459;53.044;8.910;2022-10-10T06:54:42;6.80;99.90
33095;DHT22;19459;53.044;8.910;2022-10-10T06:57:08;6.80;99.90
33095;DHT22;19459;53.044;8.910;2022-10-10T06:59:33;6.90;99.90
33095;DHT22;19459;53.044;8.910;2022-10-10T07:01:59;7.00;99.90
33095;DHT22;19459;53.044;8.910;2022-10-10T07:04:25;7.10;99.90
33095;DHT22;19459;53.044;8.910;2022-10-10T07:06:51;7.20;99.90
33095;DHT22;19459;53.044;8.910;2022-10-10T07:09:16;7.30;99.90
33095;DHT22;19459;53.044;8.910;2022-10-10T07:11:44;7.40;99.90
33095;DHT22;19459;53.044;8.910;2022-10-10T07:14:11;7.40;99.90
33095;DHT22;19459;53.044;8.910;2022-10-10T07:16:37;7.50;99.90
33095;DHT22;19459;53.044;8.910;2022-10-10T07:19:03;7.60;99.90
33095;DHT22;19459;53.044;8.910;2022-10-10T07:21:29;7.70;99.90
33095;DHT22;19459;53.044;8.910;2022-10-10T07:23:55;7.80;99.90
33095;DHT22;19459;53.044;8.910;2022-10-10T07:26:21;7.80;99.90
33095;DHT22;19459;53.044;8.910;2022-10-10T07:28:51;7.90;99.90
33095;DHT22;19459;53.044;8.910;2022-10-10T07:31:16;8.00;99.90
33095;DHT22;19459;53.044;8.910;2022-10-10T07:33:44;8.10;99.90
33095;DHT22;19459;53.044;8.910;2022-10-10T07:36:11;8.10;99.90
33095;DHT22;19459;53.044;8.910;2022-10-10T07:38:37;8.30;99.90
33095;DHT22;19459;53.044;8.910;2022-10-10T07:41:08;8.40;99.90
33095;DHT22;19459;53.044;8.910;2022-10-10T07:43:37;8.50;99.90
33095;DHT22;19459;53.044;8.910;2022-10-10T07:46:04;8.60;99.90
33095;DHT22;19459;53.044;8.910;2022-10-10T07:48:31;8.70;99.90
33095;DHT22;19459;53.044;8.910;2022-10-10T07:50:57;8.80;99.90
33095;DHT22;19459;53.044;8.910;2022-10-10T07:53:23;8.90;99.90
33095;DHT22;19459;53.044;8.910;2022-10-10T07:55:49;9.00;99.90
33095;DHT22;19459;53.044;8.910;2022-10-10T07:58:14;9.10;99.90
33095;DHT22;19459;53.044;8.910;2022-10-10T08:00:41;9.20;99.90
33095;DHT22;19459;53.044;8.910;2022-10-10T08:03:10;9.30;99.90
33095;DHT22;19459;53.044;8.910;2022-10-10T08:05:40;9.30;99.90
33095;DHT22;19459;53.044;8.910;2022-10-10T08:08:08;9.40;99.90
33095;DHT22;19459;53.044;8.910;2022-10-10T08:10:34;9.60;99.90
33095;DHT22;19459;53.044;8.910;2022-10-10T08:12:59;9.60;99.90
33095;DHT22;19459;53.044;8.910;2022-10-10T08:15:25;9.70;99.90
33095;DHT22;19459;53.044;8.910;2022-10-10T08:17:51;9.80;99.90
33095;DHT22;19459;53.044;8.910;2022-10-10T08:20:17;10.00;99.90
33095;DHT22;19459;53.044;8.910;2022-10-10T08:22:42;10.10;99.90
33095;DHT22;19459;53.044;8.910;2022-10-10T08:25:08;10.20;99.90
33095;DHT22;19459;53.044;8.910;2022-10-10T08:27:34;10.40;99.90
33095;DHT22;19459;53.044;8.910;2022-10-10T08:30:00;10.50;99.90
33095;DHT22;19459;53.044;8.910;2022-10-10T08:32:26;10.60;99.90
33095;DHT22;19459;53.044;8.910;2022-10-10T08:34:51;10.70;99.90
33095;DHT22;19459;53.044;8.910;2022-10-10T08:37:17;10.90;99.90
33095;DHT22;19459;53.044;8.910;2022-10-10T08:39:43;11.00;99.90
33095;DHT22;19459;53.044;8.910;2022-10-10T08:42:15;11.10;99.90
33095;DHT22;19459;53.044;8.910;2022-10-10T08:44:50;11.30;99.90
33095;DHT22;19459;53.044;8.910;2022-10-10T08:50:02;11.50;99.90
33095;DHT22;19459;53.044;8.910;2022-10-10T08:52:57;11.60;99.90
33095;DHT22;19459;53.044;8.910;2022-10-10T08:55:29;11.90;99.90
33095;DHT22;19459;53.044;8.910;2022-10-10T09:03:52;12.30;99.90
33095;DHT22;19459;53.044;8.910;2022-10-10T09:12:47;12.60;99.90
33095;DHT22;19459;53.044;8.910;2022-10-10T09:17:55;13.10;99.90
33095;DHT22;19459;53.044;8.910;2022-10-10T09:23:19;13.40;99.90
33095;DHT22;19459;53.044;8.910;2022-10-10T09:26:10;13.60;99.90
33095;DHT22;19459;53.044;8.910;2022-10-10T09:28:44;13.80;99.90
33095;DHT22;19459;53.044;8.910;2022-10-10T09:31:36;14.10;99.90
33095;DHT22;19459;53.044;8.910;2022-10-10T09:34:14;14.30;99.90
33095;DHT22;19459;53.044;8.910;2022-10-10T09:36:42;14.40;99.90
33095;DHT22;19459;53.044;8.910;2022-10-10T09:39:41;14.60;99.90
33095;DHT22;19459;53.044;8.910;2022-10-10T09:42:13;14.70;99.90
33095;DHT22;19459;53.044;8.910;2022-10-10T09:44:41;15.00;99.90
33095;DHT22;19459;53.044;8.910;2022-10-10T09:47:12;15.10;99.90
33095;DHT22;19459;53.044;8.910;2022-10-10T09:49:40;15.30;99.90
33095;DHT22;19459;53.044;8.910;2022-10-10T09:52:30;15.30;99.90
33095;DHT22;19459;53.044;8.910;2022-10-10T09:55:00;15.40;99.90
33095;DHT22;19459;53.044;8.910;2022-10-10T09:57:39;15.60;99.90
33095;DHT22;19459;53.044;8.910;2022-10-10T10:00:28;15.60;99.90
33095;DHT22;19459;53.044;8.910;2022-10-10T10:03:04;15.70;99.90
33095;DHT22;19459;53.044;8.910;2022-10-10T10:05:35;15.80;99.90
33095;DHT22;19459;53.044;8.910;2022-10-10T10:08:01;16.00;99.90
33095;DHT22;19459;53.044;8.910;2022-10-10T10:10:27;16.00;99.90
33095;DHT22;19459;53.044;8.910;2022-10-10T10:12:54;16.30;99.90
33095;DHT22;19459;53.044;8.910;2022-10-10T10:15:29;16.30;99.90
33095;DHT22;19459;53.044;8.910;2022-10-10T10:18:24;16.30;99.90
33095;DHT22;19459;53.044;8.910;2022-10-10T10:21:19;16.10;99.90
33095;DHT22;19459;53.044;8.910;2022-10-10T10:23:57;15.80;99.90
33095;DHT22;19459;53.044;8.910;2022-10-10T10:29:29;15.90;99.90
33095;DHT22;19459;53.044;8.910;2022-10-10T10:43:24;16.30;99.90
33095;DHT22;19459;53.044;8.910;2022-10-10T10:49:21;16.80;99.90
33095;DHT22;19459;53.044;8.910;2022-10-10T10:52:51;17.10;99.90
33095;DHT22;19459;53.044;8.910;2022-10-10T10:55:56;17.20;99.90
33095;DHT22;19459;53.044;8.910;2022-10-10T11:00:53;17.30;99.90
33095;DHT22;19459;53.044;8.910;2022-10-10T11:09:20;18.10;99.90
33095;DHT22;19459;53.044;8.910;2022-10-10T11:12:04;18.10;99.90
33095;DHT22;19459;53.044;8.910;2022-10-10T11:14:56;18.00;99.90
33095;DHT22;19459;53.044;8.910;2022-10-10T11:20:31;18.40;99.90
33095;DHT22;19459;53.044;8.910;2022-10-10T11:23:09;18.20;99.90
33095;DHT22;19459;53.044;8.910;2022-10-10T11:25:51;18.00;99.90
33095;DHT22;19459;53.044;8.910;2022-10-10T11:28:25;18.30;99.90
33095;DHT22;19459;53.044;8.910;2022-10-10T11:30:58;18.30;99.90
33095;DHT22;19459;53.044;8.910;2022-10-10T11:33:32;18.10;99.90
33095;DHT22;19459;53.044;8.910;2022-10-10T11:36:21;18.10;99.90
33095;DHT22;19459;53.044;8.910;2022-10-10T11:39:12;18.20;99.90
33095;DHT22;19459;53.044;8.910;2022-10-10T11:41:46;18.50;99.90
33095;DHT22;19459;53.044;8.910;2022-10-10T11:44:30;18.50;99.90
33095;DHT22;19459;53.044;8.910;2022-10-10T11:50:08;18.20;99.90
33095;DHT22;19459;53.044;8.910;2022-10-10T11:58:29;18.50;99.90
33095;DHT22;19459;53.044;8.910;2022-10-10T12:01:27;18.10;99.90
33095;DHT22;19459;53.044;8.910;2022-10-10T12:03:55;18.10;99.90
33095;DHT22;19459;53.044;8.910;2022-10-10T12:06:49;18.50;99.90
33095;DHT22;19459;53.044;8.910;2022-10-10T12:12:24;18.80;99.90
33095;DHT22;19459;53.044;8.910;2022-10-10T12:14:53;18.80;99.90
33095;DHT22;19459;53.044;8.910;2022-10-10T12:17:43;18.30;99.90
33095;DHT22;19459;53.044;8.910;2022-10-10T12:25:40;18.50;99.90
33095;DHT22;19459;53.044;8.910;2022-10-10T12:33:22;19.10;99.80
33095;DHT22;19459;53.044;8.910;2022-10-10T12:55:04;18.30;99.70
33095;DHT22;19459;53.044;8.910;2022-10-10T12:57:39;18.10;99.90
33095;DHT22;19459;53.044;8.910;2022-10-10T13:00:16;18.10;99.90
33095;DHT22;19459;53.044;8.910;2022-10-10T13:02:47;18.20;99.90
33095;DHT22;19459;53.044;8.910;2022-10-10T13:05:20;18.30;99.90
33095;DHT22;19459;53.044;8.910;2022-10-10T13:07:52;18.60;99.90
33095;DHT22;19459;53.044;8.910;2022-10-10T13:10:25;18.70;99.90
33095;DHT22;19459;53.044;8.910;2022-10-10T13:13:04;18.90;99.00
33095;DHT22;19459;53.044;8.910;2022-10-10T13:15:57;18.70;98.10
33095;DHT22;19459;53.044;8.910;2022-10-10T13:18:39;18.30;98.30
33095;DHT22;19459;53.044;8.910;2022-10-10T13:21:11;18.30;98.90
33095;DHT22;19459;53.044;8.910;2022-10-10T13:23:43;18.20;98.90
33095;DHT22;19459;53.044;8.910;2022-10-10T13:28:55;18.20;98.80
33095;DHT22;19459;53.044;8.910;2022-10-10T13:31:25;18.20;99.60
33095;DHT22;19459;53.044;8.910;2022-10-10T13:33:57;18.30;99.50
33095;DHT22;19459;53.044;8.910;2022-10-10T13:36:27;18.30;99.20
33095;DHT22;19459;53.044;8.910;2022-10-10T13:38:53;17.90;99.60
33095;DHT22;19459;53.044;8.910;2022-10-10T13:41:21;17.80;99.60
33095;DHT22;19459;53.044;8.910;2022-10-10T13:43:48;17.80;99.80
33095;DHT22;19459;53.044;8.910;2022-10-10T13:46:22;17.80;99.70
33095;DHT22;19459;53.044;8.910;2022-10-10T13:48:54;17.80;99.90
33095;DHT22;19459;53.044;8.910;2022-10-10T13:51:42;17.70;99.90
33095;DHT22;19459;53.044;8.910;2022-10-10T13:54:47;17.70;99.90
33095;DHT22;19459;53.044;8.910;2022-10-10T13:59:46;17.60;99.90
33095;DHT22;19459;53.044;8.910;2022-10-10T14:02:16;17.50;99.90
33095;DHT22;19459;53.044;8.910;2022-10-10T14:04:50;17.40;99.90
33095;DHT22;19459;53.044;8.910;2022-10-10T14:07:23;17.30;99.90
33095;DHT22;19459;53.044;8.910;2022-10-10T14:09:54;17.30;99.90
33095;DHT22;19459;53.044;8.910;2022-10-10T14:12:29;17.30;99.90
33095;DHT22;19459;53.044;8.910;2022-10-10T14:14:59;17.20;99.90
33095;DHT22;19459;53.044;8.910;2022-10-10T14:17:26;17.20;99.90
33095;DHT22;19459;53.044;8.910;2022-10-10T14:19:52;17.20;99.90
33095;DHT22;19459;53.044;8.910;2022-10-10T14:22:19;17.10;99.90
33095;DHT22;19459;53.044;8.910;2022-10-10T14:24:46;17.10;99.90
33095;DHT22;19459;53.044;8.910;2022-10-10T14:29:44;17.00;99.90
33095;DHT22;19459;53.044;8.910;2022-10-10T14:32:11;17.00;99.90
33095;DHT22;19459;53.044;8.910;2022-10-10T14:34:38;16.90;99.90
33095;DHT22;19459;53.044;8.910;2022-10-10T14:37:04;16.90;99.90
33095;DHT22;19459;53.044;8.910;2022-10-10T14:39:30;16.90;99.90
33095;DHT22;19459;53.044;8.910;2022-10-10T14:41:57;16.90;99.90
33095;DHT22;19459;53.044;8.910;2022-10-10T14:44:25;16.80;99.90
33095;DHT22;19459;53.044;8.910;2022-10-10T14:46:51;16.70;99.90
33095;DHT22;19459;53.044;8.910;2022-10-10T14:49:19;16.70;99.90
33095;DHT22;19459;53.044;8.910;2022-10-10T14:51:46;16.80;99.90
33095;DHT22;19459;53.044;8.910;2022-10-10T14:54:12;16.80;99.90
33095;DHT22;19459;53.044;8.910;2022-10-10T14:56:40;16.70;99.90
33095;DHT22;19459;53.044;8.910;2022-10-10T14:59:18;16.60;99.90
33095;DHT22;19459;53.044;8.910;2022-10-10T15:01:45;16.70;99.90
33095;DHT22;19459;53.044;8.910;2022-10-10T15:04:12;16.60;99.90
33095;DHT22;19459;53.044;8.910;2022-10-10T15:06:38;16.60;99.90
33095;DHT22;19459;53.044;8.910;2022-10-10T15:09:05;16.50;99.90
33095;DHT22;19459;53.044;8.910;2022-10-10T15:11:31;16.50;99.90
33095;DHT22;19459;53.044;8.910;2022-10-10T15:13:57;16.50;99.90
33095;DHT22;19459;53.044;8.910;2022-10-10T15:16:23;16.40;99.90
33095;DHT22;19459;53.044;8.910;2022-10-10T15:18:48;16.40;99.90
33095;DHT22;19459;53.044;8.910;2022-10-10T15:21:14;16.30;99.90
33095;DHT22;19459;53.044;8.910;2022-10-10T15:23:40;16.30;99.90
33095;DHT22;19459;53.044;8.910;2022-10-10T15:26:06;16.20;99.90
33095;DHT22;19459;53.044;8.910;2022-10-10T15:28:32;16.10;99.90
33095;DHT22;19459;53.044;8.910;2022-10-10T15:30:58;15.90;99.90
33095;DHT22;19459;53.044;8.910;2022-10-10T15:33:24;15.60;99.90
33095;DHT22;19459;53.044;8.910;2022-10-10T15:36:03;15.50;99.90
33095;DHT22;19459;53.044;8.910;2022-10-10T15:38:33;15.40;99.90
33095;DHT22;19459;53.044;8.910;2022-10-10T15:41:03;15.20;99.90
33095;DHT22;19459;53.044;8.910;2022-10-10T15:43:42;15.10;99.90
33095;DHT22;19459;53.044;8.910;2022-10-10T15:46:11;15.00;99.90
33095;DHT22;19459;53.044;8.910;2022-10-10T15:48:37;14.90;99.90
33095;DHT22;19459;53.044;8.910;2022-10-10T15:51:07;14.80;99.90
33095;DHT22;19459;53.044;8.910;2022-10-10T15:53:33;14.80;99.90
33095;DHT22;19459;53.044;8.910;2022-10-10T15:55:59;14.70;99.90
33095;DHT22;19459;53.044;8.910;2022-10-10T15:58:25;14.60;99.90
33095;DHT22;19459;53.044;8.910;2022-10-10T16:00:51;14.60;99.90
33095;DHT22;19459;53.044;8.910;2022-10-10T16:03:16;14.50;99.90
33095;DHT22;19459;53.044;8.910;2022-10-10T16:05:42;14.50;99.90
33095;DHT22;19459;53.044;8.910;2022-10-10T16:08:09;14.30;99.90
33095;DHT22;19459;53.044;8.910;2022-10-10T16:10:42;14.20;99.90
33095;DHT22;19459;53.044;8.910;2022-10-10T16:13:09;14.20;99.90
33095;DHT22;19459;53.044;8.910;2022-10-10T16:15:35;14.20;99.90
33095;DHT22;19459;53.044;8.910;2022-10-10T16:18:01;14.10;99.90
33095;DHT22;19459;53.044;8.910;2022-10-10T16:20:27;14.00;99.90
33095;DHT22;19459;53.044;8.910;2022-10-10T16:22:53;14.00;99.90
33095;DHT22;19459;53.044;8.910;2022-10-10T16:25:19;14.00;99.90
33095;DHT22;19459;53.044;8.910;2022-10-10T16:27:45;14.00;99.90
33095;DHT22;19459;53.044;8.910;2022-10-10T16:30:11;14.00;99.90
33095;DHT22;19459;53.044;8.910;2022-10-10T16:32:37;13.90;99.90
33095;DHT22;19459;53.044;8.910;2022-10-10T16:35:03;13.90;99.90
33095;DHT22;19459;53.044;8.910;2022-10-10T16:37:28;13.90;99.90
33095;DHT22;19459;53.044;8.910;2022-10-10T16:39:54;13.80;99.90
33095;DHT22;19459;53.044;8.910;2022-10-10T16:42:20;13.80;99.90
33095;DHT22;19459;53.044;8.910;2022-10-10T16:44:45;13.70;99.90
33095;DHT22;19459;53.044;8.910;2022-10-10T16:47:11;13.70;99.90
33095;DHT22;19459;53.044;8.910;2022-10-10T16:49:37;13.80;99.90
33095;DHT22;19459;53.044;8.910;2022-10-10T16:52:03;13.80;99.90
33095;DHT22;19459;53.044;8.910;2022-10-10T16:54:29;13.80;99.90
33095;DHT22;19459;53.044;8.910;2022-10-10T16:56:54;13.70;99.90
33095;DHT22;19459;53.044;8.910;2022-10-10T16:59:20;13.70;99.90
33095;DHT22;19459;53.044;8.910;2022-10-10T17:01:46;13.60;99.90
33095;DHT22;19459;53.044;8.910;2022-10-10T17:04:11;13.60;99.90
33095;DHT22;19459;53.044;8.910;2022-10-10T17:06:37;13.50;99.90
33095;DHT22;19459;53.044;8.910;2022-10-10T17:09:05;13.50;99.90
33095;DHT22;19459;53.044;8.910;2022-10-10T17:11:32;13.40;99.90
33095;DHT22;19459;53.044;8.910;2022-10-10T17:13:58;13.40;99.90
33095;DHT22;19459;53.044;8.910;2022-10-10T17:16:26;13.40;99.90
33095;DHT22;19459;53.044;8.910;2022-10-10T17:18:52;13.30;99.90
33095;DHT22;19459;53.044;8.910;2022-10-10T17:21:20;13.20;99.90
33095;DHT22;19459;53.044;8.910;2022-10-10T17:23:49;13.20;99.90
33095;DHT22;19459;53.044;8.910;2022-10-10T17:26:17;13.10;99.90
33095;DHT22;19459;53.044;8.910;2022-10-10T17:28:47;13.10;99.90
33095;DHT22;19459;53.044;8.910;2022-10-10T17:31:17;13.10;99.90
33095;DHT22;19459;53.044;8.910;2022-10-10T17:33:44;13.00;99.90
33095;DHT22;19459;53.044;8.910;2022-10-10T17:36:18;13.00;99.90
33095;DHT22;19459;53.044;8.910;2022-10-10T17:38:46;12.90;99.90
33095;DHT22;19459;53.044;8.910;2022-10-10T17:41:14;12.80;99.90
33095;DHT22;19459;53.044;8.910;2022-10-10T17:43:41;12.90;99.90
33095;DHT22;19459;53.044;8.910;2022-10-10T17:46:11;12.90;99.90
33095;DHT22;19459;53.044;8.910;2022-10-10T17:48:41;12.80;99.90
33095;DHT22;19459;53.044;8.910;2022-10-10T17:51:08;12.70;99.90